Time;durP1;ratioP1;P1;durP2;ratioP2;P2;SDS_P1;SDS_P2;PMS_P1;PMS_P2;Temp;Humidity;BMP_temperature;BMP_pressure;BME280_temperature;BME280_humidity;BME280_pressure;Samples;Min_cycle;Max_cycle;Signal;HPM_P1;HPM_P2
2022/03/23 00:01:24;;;;;;;31.35;17.58;;;180.10;1510.40;;;;;;4988413;28;20460;-81
2022/03/23 00:03:50;;;;;;;30.50;18.08;;;180.10;1510.40;;;;;;4994265;28;20041;-80
2022/03/23 00:06:17;;;;;;;29.50;18.75;;;180.10;1510.40;;;;;;5004503;28;20386;-80
2022/03/23 00:08:44;;;;;;;29.30;19.10;;;180.00;1510.40;;;;;;5013552;28;20398;-80
2022/03/23 00:11:10;;;;;;;35.35;22.05;;;180.00;1510.40;;;;;;4996754;28;20038;-80
2022/03/23 00:13:36;;;;;;;40.45;24.17;;;179.80;1536.00;;;;;;5009641;28;20054;-81
2022/03/23 00:16:04;;;;;;;35.13;21.52;;;179.90;1536.00;;;;;;4995348;28;20109;-80
2022/03/23 00:18:29;;;;;;;34.92;21.38;;;179.90;1536.00;;;;;;4995340;28;20439;-81
2022/03/23 00:20:55;;;;;;;34.17;23.20;;;179.80;1536.00;;;;;;4995794;28;20097;-80
2022/03/23 00:23:21;;;;;;;39.03;22.95;;;179.70;1536.00;;;;;;5007138;28;20062;-81
2022/03/23 00:25:48;;;;;;;32.97;21.13;;;179.70;1561.60;;;;;;4976135;28;20077;-80
2022/03/23 00:28:13;;;;;;;37.30;22.00;;;179.70;1561.60;;;;;;4990224;28;20031;-79
2022/03/23 00:30:40;;;;;;;38.00;23.63;;;179.70;1561.60;;;;;;4975649;28;20050;-80
2022/03/23 00:33:06;;;;;;;41.53;25.02;;;179.60;1561.60;;;;;;4990097;28;20035;-80
2022/03/23 00:35:32;;;;;;;41.80;25.90;;;179.40;1561.60;;;;;;4990189;28;20129;-80
2022/03/23 00:38:00;;;;;;;42.80;25.92;;;179.50;1561.60;;;;;;4975961;28;20042;-80
2022/03/23 00:40:28;;;;;;;39.78;23.33;;;179.50;1561.60;;;;;;4975258;28;20031;-80
2022/03/23 00:42:54;;;;;;;38.17;21.20;;;179.40;1561.60;;;;;;4974181;28;20042;-80
2022/03/23 00:45:20;;;;;;;45.67;27.50;;;179.40;1587.20;;;;;;4975954;28;20098;-79
2022/03/23 00:47:48;;;;;;;44.03;27.25;;;179.40;1587.20;;;;;;4993253;28;20030;-80
2022/03/23 00:50:14;;;;;;;37.88;23.85;;;179.40;1587.20;;;;;;4993576;28;20031;-79
2022/03/23 00:52:42;;;;;;;37.53;22.65;;;179.40;1587.20;;;;;;4993451;28;20096;-81
2022/03/23 00:55:09;;;;;;;39.40;22.20;;;179.40;1587.20;;;;;;4993719;28;20085;-78
2022/03/23 00:57:36;;;;;;;38.17;22.95;;;179.30;1612.80;;;;;;4976921;28;20069;-79
2022/03/23 01:00:06;;;;;;;37.83;22.70;;;179.30;1638.40;;;;;;4976686;28;20042;-79
2022/03/23 01:02:34;;;;;;;38.40;21.27;;;179.30;1638.40;;;;;;4994389;28;20022;-78
2022/03/23 01:05:01;;;;;;;34.15;20.08;;;179.20;1638.40;;;;;;4976971;28;20034;-79
2022/03/23 01:07:27;;;;;;;38.33;21.30;;;154.40;1638.40;;;;;;4992658;28;20074;-78
2022/03/23 01:09:52;;;;;;;34.15;20.45;;;154.50;1638.40;;;;;;4992612;28;20113;-79
2022/03/23 01:12:18;;;;;;;38.10;21.52;;;154.50;1638.40;;;;;;4976267;28;20033;-79
2022/03/23 01:14:44;;;;;;;37.35;19.98;;;154.40;1638.40;;;;;;4975229;28;20038;-79
2022/03/23 01:17:09;;;;;;;30.15;19.85;;;154.40;1664.00;;;;;;4991825;28;20425;-79
2022/03/23 01:19:36;;;;;;;33.53;19.92;;;154.30;1664.00;;;;;;5012278;28;20052;-79
2022/03/23 01:22:04;;;;;;;31.02;19.70;;;154.30;1664.00;;;;;;4995997;28;20058;-79
2022/03/23 01:24:30;;;;;;;30.60;19.33;;;154.20;1664.00;;;;;;5013447;28;20018;-79
2022/03/23 01:26:56;;;;;;;30.65;19.85;;;154.20;1664.00;;;;;;5012711;28;20113;-79
2022/03/23 01:29:22;;;;;;;32.45;19.10;;;154.20;1664.00;;;;;;5012191;28;20025;-79
2022/03/23 01:31:48;;;;;;;28.98;19.52;;;154.30;1664.00;;;;;;4995427;28;20057;-79
2022/03/23 01:34:14;;;;;;;34.53;20.65;;;154.20;1664.00;;;;;;5013464;28;20379;-78
2022/03/23 01:36:40;;;;;;;36.08;20.35;;;154.10;1664.00;;;;;;5013907;28;20471;-80
2022/03/23 01:39:06;;;;;;;34.72;19.90;;;154.10;1664.00;;;;;;4995748;28;20030;-81
2022/03/23 01:41:36;;;;;;;31.02;18.90;;;154.10;1664.00;;;;;;5011984;28;20118;-80
2022/03/23 01:44:13;;;;;;;40.80;21.38;;;154.10;1664.00;;;;;;5013493;28;20120;-80
2022/03/23 01:47:00;;;;;;;35.35;19.80;;;154.10;1664.00;;;;;;4996979;28;20086;-80
2022/03/23 01:49:27;;;;;;;37.30;20.80;;;154.10;1689.60;;;;;;4974318;28;20031;-79
2022/03/23 01:51:53;;;;;;;35.35;22.80;;;154.10;1689.60;;;;;;4974406;28;20058;-80
2022/03/23 01:54:19;;;;;;;37.95;22.52;;;154.10;1689.60;;;;;;4974175;28;20054;-79
2022/03/23 01:56:45;;;;;;;35.28;21.65;;;154.10;1689.60;;;;;;4989436;28;20035;-79
2022/03/23 01:59:12;;;;;;;34.08;21.17;;;154.10;1689.60;;;;;;4974047;28;20023;-80
2022/03/23 02:01:39;;;;;;;39.17;20.52;;;154.10;1689.60;;;;;;4991245;28;20054;-79
2022/03/23 02:04:05;;;;;;;37.60;19.63;;;154.10;1689.60;;;;;;4992272;28;20022;-80
2022/03/23 02:06:31;;;;;;;36.22;20.42;;;154.10;1689.60;;;;;;4992048;28;20037;-80
2022/03/23 02:08:58;;;;;;;35.88;18.65;;;154.00;1689.60;;;;;;4993038;28;20029;-80
2022/03/23 02:11:24;;;;;;;31.95;18.48;;;154.00;1715.20;;;;;;4990847;28;20015;-80
2022/03/23 02:13:53;;;;;;;31.15;18.58;;;153.90;1715.20;;;;;;4987845;28;20022;-79
2022/03/23 02:16:19;;;;;;;37.25;18.60;;;153.80;1715.20;;;;;;4988626;28;20034;-79
2022/03/23 02:18:44;;;;;;;34.15;18.95;;;153.80;1715.20;;;;;;4974209;28;20383;-80
2022/03/23 02:21:14;;;;;;;39.53;18.65;;;153.70;1740.80;;;;;;4956763;28;20035;-80
2022/03/23 02:23:40;;;;;;;32.03;19.17;;;153.70;1740.80;;;;;;4973930;28;20035;-80
2022/03/23 02:26:06;;;;;;;28.10;17.73;;;153.70;1740.80;;;;;;4955938;28;20050;-80
2022/03/23 02:28:32;;;;;;;35.35;17.02;;;153.70;1740.80;;;;;;4973841;28;20049;-81
2022/03/23 02:30:58;;;;;;;36.25;19.17;;;153.70;1740.80;;;;;;4971836;28;20392;-80
2022/03/23 02:33:24;;;;;;;42.38;21.85;;;153.80;1740.80;;;;;;4973652;28;20023;-78
2022/03/23 02:35:50;;;;;;;38.83;19.98;;;153.90;1740.80;;;;;;4973778;28;20031;-79
2022/03/23 02:38:17;;;;;;;39.85;19.63;;;154.00;1740.80;;;;;;4971565;28;20125;-79
2022/03/23 02:40:46;;;;;;;39.92;20.48;;;154.10;1740.80;;;;;;4956206;28;20041;-80
2022/03/23 02:43:13;;;;;;;37.97;19.75;;;154.20;1740.80;;;;;;4973327;28;20129;-80
2022/03/23 02:45:39;;;;;;;35.63;19.48;;;154.20;1740.80;;;;;;4978369;28;20081;-81
2022/03/23 02:48:06;;;;;;;44.25;19.85;;;154.20;1766.40;;;;;;5010338;28;20026;-80
2022/03/23 02:50:33;;;;;;;34.00;17.70;;;154.20;1740.80;;;;;;5012728;28;20021;-81
2022/03/23 03:01:55;;;;;;;33.25;14.35;;;154.30;1792.00;;;;;;5012412;28;20169;-79
2022/03/23 03:04:22;;;;;;;35.78;12.73;;;154.30;1792.00;;;;;;5012574;28;20108;-80
2022/03/23 03:06:48;;;;;;;26.73;12.18;;;154.30;1817.60;;;;;;4994406;28;20220;-79
2022/03/23 03:09:16;;;;;;;31.92;13.18;;;154.30;1843.20;;;;;;5012390;28;20113;-79
2022/03/23 03:11:43;;;;;;;31.60;13.35;;;154.40;1843.20;;;;;;5011155;28;20505;-80
2022/03/23 03:14:11;;;;;;;35.70;15.48;;;154.40;1868.80;;;;;;5012357;28;20030;-79
2022/03/23 03:16:37;;;;;;;28.42;13.07;;;154.40;1868.80;;;;;;4993689;28;20034;-79
2022/03/23 03:19:09;;;;;;;35.35;14.50;;;154.40;1868.80;;;;;;4994502;28;20406;-80
2022/03/23 03:21:35;;;;;;;31.95;13.70;;;154.40;1868.80;;;;;;5011138;28;20490;-80
2022/03/23 03:24:01;;;;;;;56.13;16.70;;;154.40;1868.80;;;;;;5011924;28;20053;-79
2022/03/23 03:26:30;;;;;;;32.50;14.25;;;154.40;1894.40;;;;;;4994806;28;20045;-79
2022/03/23 03:28:56;;;;;;;24.65;13.10;;;154.40;1920.00;;;;;;4994202;28;20022;-79
2022/03/23 03:31:23;;;;;;;26.95;12.45;;;154.40;1920.00;;;;;;5012185;28;20014;-79
2022/03/23 03:33:49;;;;;;;38.58;13.43;;;154.40;1920.00;;;;;;5011125;28;20022;-80
2022/03/23 03:36:15;;;;;;;34.25;12.38;;;154.40;1920.00;;;;;;5012439;28;20030;-79
2022/03/23 03:38:42;;;;;;;30.40;12.70;;;154.20;1945.60;;;;;;4998188;28;20041;-80
2022/03/23 03:41:08;;;;;;;26.98;11.57;;;154.10;1996.80;;;;;;5015711;28;20069;-78
2022/03/23 03:43:35;;;;;;;24.15;10.73;;;154.10;2022.40;;;;;;5015242;28;20143;-80
2022/03/23 03:46:02;;;;;;;28.50;9.60;;;154.10;2048.00;;;;;;4997234;28;20029;-79
2022/03/23 03:48:28;;;;;;;23.63;10.13;;;154.10;2073.60;;;;;;4990661;28;20129;-79
2022/03/23 03:50:54;;;;;;;36.45;10.35;;;154.10;2124.80;;;;;;5014009;28;20431;-79
2022/03/23 03:53:20;;;;;;;25.52;9.85;;;154.00;2150.40;;;;;;4996900;28;20057;-79
2022/03/23 03:55:46;;;;;;;19.85;9.18;;;154.10;2176.00;;;;;;5014573;28;20025;-80
2022/03/23 03:58:12;;;;;;;24.30;7.80;;;154.10;2227.20;;;;;;5012974;28;20105;-79
2022/03/23 04:00:39;;;;;;;22.45;7.82;;;154.00;2252.80;;;;;;5014176;28;20022;-79
2022/03/23 04:03:05;;;;;;;26.50;8.10;;;154.00;2252.80;;;;;;5015034;28;20029;-79
2022/03/23 04:05:34;;;;;;;24.75;8.45;;;154.00;2252.80;;;;;;5013465;28;20022;-79
2022/03/23 04:08:00;;;;;;;25.60;8.63;;;154.00;2252.80;;;;;;5012913;28;20057;-78
2022/03/23 04:10:27;;;;;;;27.02;8.13;;;154.10;2252.80;;;;;;5013115;28;20061;-78
2022/03/23 04:12:53;;;;;;;45.63;12.98;;;154.10;2252.80;;;;;;5012897;28;20042;-78
2022/03/23 04:15:20;;;;;;;22.00;8.75;;;154.10;2252.80;;;;;;5008320;28;20034;-78
2022/03/23 04:17:47;;;;;;;20.08;7.85;;;154.00;2252.80;;;;;;5004982;28;20365;-78
2022/03/23 04:20:13;;;;;;;23.58;8.82;;;154.00;2252.80;;;;;;5003326;28;20041;-80
2022/03/23 04:22:39;;;;;;;33.95;9.65;;;154.40;2252.80;;;;;;4990770;28;20499;-79
2022/03/23 04:25:10;;;;;;;15.25;7.57;;;154.00;2252.80;;;;;;5011683;28;20030;-80
2022/03/23 04:27:56;;;;;;;28.80;8.38;;;154.10;2252.80;;;;;;5014350;28;20113;-80
2022/03/23 04:30:24;;;;;;;21.90;8.03;;;154.10;2252.80;;;;;;4996781;28;20030;-80
2022/03/23 04:32:51;;;;;;;23.33;9.63;;;154.20;2252.80;;;;;;5010781;28;20125;-80
2022/03/23 04:35:19;;;;;;;21.70;9.20;;;154.20;2252.80;;;;;;5013972;28;20030;-81
2022/03/23 04:37:45;;;;;;;20.17;8.38;;;154.20;2252.80;;;;;;5005543;28;20030;-80
2022/03/23 04:40:14;;;;;;;25.73;9.85;;;154.30;2252.80;;;;;;5012231;28;20509;-79
2022/03/23 04:42:40;;;;;;;20.90;8.40;;;154.20;2252.80;;;;;;4983695;28;20050;-80
2022/03/23 04:45:07;;;;;;;23.20;10.65;;;154.30;2252.80;;;;;;4981266;28;20124;-79
2022/03/23 04:47:34;;;;;;;20.02;10.07;;;154.40;2252.80;;;;;;5006087;28;20034;-79
2022/03/23 04:50:05;;;;;;;17.50;9.05;;;154.50;2252.80;;;;;;4988286;28;20026;-78
2022/03/23 04:52:31;;;;;;;20.38;8.65;;;154.50;2252.80;;;;;;5003589;28;20023;-79
2022/03/23 04:54:57;;;;;;;28.00;8.57;;;154.50;2252.80;;;;;;4987245;28;20033;-81
2022/03/23 04:57:27;;;;;;;26.85;8.02;;;154.50;2252.80;;;;;;4985168;28;20107;-82
2022/03/23 04:59:58;;;;;;;17.50;7.05;;;179.20;2252.80;;;;;;5006787;28;20026;-80
2022/03/23 05:02:26;;;;;;;21.70;7.45;;;179.30;2252.80;;;;;;4988290;28;20080;-80
2022/03/23 05:04:51;;;;;;;16.10;7.50;;;179.40;2252.80;;;;;;5005245;28;20018;-81
2022/03/23 05:07:17;;;;;;;26.08;9.18;;;179.40;2252.80;;;;;;4964525;28;20066;-81
2022/03/23 05:09:43;;;;;;;18.85;6.82;;;179.40;2252.80;;;;;;5004822;28;20032;-81
2022/03/23 05:12:09;;;;;;;22.90;7.65;;;179.40;2252.80;;;;;;5003645;28;20034;-82
2022/03/23 05:14:36;;;;;;;22.63;7.45;;;179.50;2252.80;;;;;;5006840;28;20099;-81
2022/03/23 05:17:02;;;;;;;26.15;7.30;;;179.60;2252.80;;;;;;5001326;28;20029;-81
2022/03/23 05:19:28;;;;;;;17.08;8.55;;;179.50;2252.80;;;;;;4987560;28;20037;-81
2022/03/23 05:21:54;;;;;;;26.50;6.70;;;179.70;2252.80;;;;;;5001471;28;20030;-81
2022/03/23 05:24:20;;;;;;;23.45;8.98;;;179.80;2252.80;;;;;;5001304;28;20080;-81
2022/03/23 05:26:45;;;;;;;19.50;6.90;;;179.80;2252.80;;;;;;5007830;28;20038;-82
2022/03/23 05:29:11;;;;;;;20.45;7.07;;;179.90;2252.80;;;;;;4975274;28;20038;-83
2022/03/23 05:31:38;;;;;;;22.45;7.55;;;180.00;2252.80;;;;;;4975854;28;20035;-82
2022/03/23 05:34:04;;;;;;;20.13;7.07;;;180.00;2252.80;;;;;;4976735;28;20030;-83
2022/03/23 05:36:30;;;;;;;25.45;7.97;;;180.10;2252.80;;;;;;4994113;28;20133;-82
2022/03/23 05:38:57;;;;;;;25.67;7.38;;;204.80;2252.80;;;;;;4976915;28;20415;-83
2022/03/23 05:41:24;;;;;;;20.38;9.15;;;204.90;2252.80;;;;;;4976605;28;20034;-82
2022/03/23 05:43:50;;;;;;;21.23;7.70;;;204.90;2252.80;;;;;;4977931;28;20121;-82
2022/03/23 05:46:15;;;;;;;15.18;8.55;;;205.00;2252.80;;;;;;4993763;28;20104;-83
2022/03/23 05:48:41;;;;;;;33.20;9.60;;;205.00;2252.80;;;;;;4983397;28;20053;-82
2022/03/23 05:51:07;;;;;;;23.23;8.82;;;205.00;2252.80;;;;;;4984770;28;20027;-82
2022/03/23 05:53:33;;;;;;;17.67;7.30;;;205.00;2252.80;;;;;;4993807;28;20080;-83
2022/03/23 05:55:59;;;;;;;12.18;6.72;;;205.00;2252.80;;;;;;4983267;28;20034;-82
2022/03/23 05:58:25;;;;;;;19.23;8.48;;;205.50;2252.80;;;;;;4970233;28;20141;-82
2022/03/23 06:00:51;;;;;;;16.80;7.45;;;205.00;2252.80;;;;;;5003031;28;20121;-82
2022/03/23 06:03:17;;;;;;;16.20;7.82;;;205.10;2252.80;;;;;;4967051;28;20436;-82
2022/03/23 06:05:43;;;;;;;25.85;7.47;;;205.20;2252.80;;;;;;4996710;28;20065;-81
2022/03/23 06:08:08;;;;;;;20.52;7.38;;;205.30;2227.20;;;;;;4992367;28;20388;-82
2022/03/23 06:10:34;;;;;;;19.10;7.80;;;205.40;2227.20;;;;;;4983774;28;20033;-82
2022/03/23 06:13:00;;;;;;;22.63;8.38;;;205.60;2201.60;;;;;;4984354;28;20042;-81
2022/03/23 06:15:26;;;;;;;16.75;7.45;;;205.70;2176.00;;;;;;4992060;28;20505;-82
2022/03/23 06:17:52;;;;;;;23.35;10.00;;;230.40;2150.40;;;;;;4990205;28;20041;-83
2022/03/23 06:20:18;;;;;;;21.73;9.55;;;230.50;2124.80;;;;;;4980616;28;20042;-82
2022/03/23 06:22:43;;;;;;;24.10;7.82;;;230.60;2099.20;;;;;;4978916;28;20487;-82
2022/03/23 06:25:10;;;;;;;23.05;7.75;;;230.70;2073.60;;;;;;4992823;28;20038;-82
2022/03/23 06:27:37;;;;;;;20.63;7.00;;;230.80;2048.00;;;;;;4981353;28;20053;-83
2022/03/23 06:30:04;;;;;;;23.80;7.25;;;230.90;2022.40;;;;;;4992793;28;20088;-81
2022/03/23 06:32:29;;;;;;;16.75;7.13;;;231.10;1996.80;;;;;;4956645;28;20045;-82
2022/03/23 06:34:56;;;;;;;18.02;7.45;;;231.20;1971.20;;;;;;4973656;28;20035;-81
2022/03/23 06:37:22;;;;;;;26.48;8.32;;;231.30;1971.20;;;;;;4992358;28;20057;-83
2022/03/23 06:39:48;;;;;;;21.83;7.72;;;256.10;1945.60;;;;;;4991151;28;20109;-83
2022/03/23 06:42:14;;;;;;;13.52;6.82;;;256.20;1945.60;;;;;;4985675;28;20106;-82
2022/03/23 06:44:41;;;;;;;13.10;7.53;;;256.40;1945.60;;;;;;4992027;28;20173;-82
2022/03/23 06:47:06;;;;;;;17.70;7.10;;;256.70;1894.40;;;;;;4983926;28;20030;-82
2022/03/23 06:49:32;;;;;;;18.30;7.35;;;256.90;1868.80;;;;;;4981230;28;20041;-82
2022/03/23 06:51:58;;;;;;;16.58;7.43;;;281.90;1868.80;;;;;;4971996;28;20472;-83
2022/03/23 06:54:24;;;;;;;17.63;7.28;;;282.30;1817.60;;;;;;4993178;28;20098;-82
2022/03/23 06:56:51;;;;;;;15.68;6.53;;;307.20;1766.40;;;;;;4986130;28;20092;-83
2022/03/23 06:59:19;;;;;;;26.67;7.07;;;307.50;1715.20;;;;;;4999632;28;20398;-82
2022/03/23 07:01:44;;;;;;;12.52;5.70;;;307.70;1664.00;;;;;;4991558;28;20041;-82
2022/03/23 07:04:10;;;;;;;19.52;8.32;;;307.90;1638.40;;;;;;4982546;28;20031;-82
2022/03/23 07:06:36;;;;;;;19.55;6.80;;;308.10;1612.80;;;;;;4990761;28;20030;-81
2022/03/23 07:11:46;;;;;;;22.70;8.43;;;333.00;1612.80;;;;;;4994306;28;20500;-82
2022/03/23 07:14:12;;;;;;;18.58;7.75;;;333.10;1587.20;;;;;;4997613;28;20034;-82
2022/03/23 07:16:38;;;;;;;27.58;9.00;;;333.30;1561.60;;;;;;4998543;28;20100;-82
2022/03/23 07:19:04;;;;;;;12.05;6.25;;;333.60;1561.60;;;;;;4968921;28;20046;-82
2022/03/23 07:21:31;;;;;;;20.80;7.40;;;358.40;1510.40;;;;;;4986253;28;20035;-84
2022/03/23 07:23:56;;;;;;;18.48;6.85;;;358.60;1510.40;;;;;;4994969;28;20037;-83
2022/03/23 07:26:22;;;;;;;18.17;6.90;;;358.80;1484.80;;;;;;4984020;28;20109;-83
2022/03/23 07:28:48;;;;;;;17.77;7.25;;;358.90;1459.20;;;;;;4987568;28;20789;-80
2022/03/23 07:31:14;;;;;;;20.75;6.55;;;358.90;1459.20;;;;;;4984158;28;20177;-82
2022/03/23 07:33:40;;;;;;;15.25;6.50;;;359.10;1459.20;;;;;;4996214;28;20491;-80
2022/03/23 07:36:06;;;;;;;15.65;7.20;;;359.30;1459.20;;;;;;4980962;28;20061;-81
2022/03/23 07:38:31;;;;;;;22.58;8.27;;;384.00;1433.60;;;;;;4995753;28;20027;-81
2022/03/23 07:40:57;;;;;;;21.25;8.20;;;384.20;1408.00;;;;;;4994744;28;20029;-77
2022/03/23 07:43:23;;;;;;;26.83;8.77;;;384.50;1408.00;;;;;;4989093;28;20043;-82
2022/03/23 07:45:49;;;;;;;16.42;7.03;;;384.70;1382.40;;;;;;4969874;28;20113;-84
2022/03/23 07:48:17;;;;;;;20.90;8.57;;;384.80;1382.40;;;;;;4959980;28;20039;-85
2022/03/23 07:50:43;;;;;;;20.75;6.05;;;409.80;1382.40;;;;;;4963877;28;20041;-84
2022/03/23 07:53:09;;;;;;;17.67;7.10;;;409.90;1356.80;;;;;;4960441;28;20117;-84
2022/03/23 07:55:35;;;;;;;18.80;5.85;;;410.30;1331.20;;;;;;4965150;28;20051;-84
2022/03/23 07:58:00;;;;;;;18.85;6.97;;;410.50;1331.20;;;;;;4958466;28;20023;-84
2022/03/23 08:00:26;;;;;;;16.90;7.00;;;435.20;1305.60;;;;;;4959569;28;20062;-84
2022/03/23 08:02:52;;;;;;;16.15;7.22;;;435.40;1305.60;;;;;;4961865;28;20042;-84
2022/03/23 08:05:18;;;;;;;18.45;7.40;;;435.70;1280.00;;;;;;4976768;28;20045;-83
2022/03/23 08:07:45;;;;;;;15.82;6.75;;;435.60;1280.00;;;;;;4959475;28;20031;-83
2022/03/23 08:10:11;;;;;;;20.50;6.60;;;435.90;1254.40;;;;;;4974925;28;20033;-83
2022/03/23 08:12:37;;;;;;;14.75;6.65;;;436.10;1254.40;;;;;;4983393;28;20026;-83
2022/03/23 08:15:03;;;;;;;27.40;12.52;;;461.00;1254.40;;;;;;4977450;28;20484;-84
2022/03/23 08:17:28;;;;;;;22.45;9.73;;;461.30;1228.80;;;;;;4957685;28;20054;-84
2022/03/23 08:22:38;;;;;;;18.27;6.88;;;461.70;1203.20;;;;;;4974137;28;20069;-84
2022/03/23 08:25:05;;;;;;;12.85;6.43;;;486.50;1177.60;;;;;;4954651;28;20507;-83
2022/03/23 08:27:31;;;;;;;15.13;8.40;;;486.70;1177.60;;;;;;4958098;28;20054;-83
2022/03/23 08:29:57;;;;;;;23.00;7.43;;;461.50;1203.20;;;;;;4965036;28;20031;-82
2022/03/23 08:32:22;;;;;;;15.77;6.18;;;486.80;1177.60;;;;;;4967398;28;20121;-83
2022/03/23 08:34:49;;;;;;;22.52;7.78;;;487.00;1152.00;;;;;;4975715;28;20041;-82
2022/03/23 08:37:16;;;;;;;17.95;7.72;;;512.30;1126.40;;;;;;4959160;28;20030;-83
2022/03/23 08:39:41;;;;;;;17.90;7.30;;;512.30;1126.40;;;;;;4957433;28;20487;-84
2022/03/23 08:42:07;;;;;;;16.98;6.85;;;512.20;1126.40;;;;;;4958086;28;20065;-84
2022/03/23 08:44:33;;;;;;;17.20;7.65;;;487.10;1100.80;;;;;;4994644;28;20467;-85
2022/03/23 08:46:59;;;;;;;14.82;7.38;;;487.10;1126.40;;;;;;4977107;28;20027;-85
2022/03/23 08:49:26;;;;;;;17.52;8.07;;;487.30;1100.80;;;;;;4982188;28;20034;-85
2022/03/23 08:51:51;;;;;;;16.52;7.47;;;512.20;1100.80;;;;;;4990315;28;20471;-85
2022/03/23 08:54:17;;;;;;;14.23;7.97;;;486.90;1126.40;;;;;;4997396;28;20026;-85
2022/03/23 08:56:43;;;;;;;20.02;8.23;;;487.20;1126.40;;;;;;4996437;28;20035;-86
2022/03/23 08:59:09;;;;;;;22.27;7.95;;;487.20;1126.40;;;;;;4977288;28;20058;-86
2022/03/23 09:01:35;;;;;;;22.48;7.15;;;512.50;1100.80;;;;;;4973903;28;20491;-85
2022/03/23 09:04:04;;;;;;;20.35;8.18;;;512.20;1075.20;;;;;;4975470;28;20120;-84
2022/03/23 09:06:30;;;;;;;21.92;8.30;;;512.40;1075.20;;;;;;4977062;28;20041;-84
2022/03/23 09:08:55;;;;;;;23.38;8.57;;;537.80;1075.20;;;;;;4992692;28;20399;-84
2022/03/23 09:11:22;;;;;;;19.50;9.07;;;538.40;1024.00;;;;;;4976773;28;20018;-84
2022/03/23 09:26:55;;;;;;;31.85;10.25;;;537.70;1049.60;;;;;;5275977;23;20069;-83
2022/03/23 09:29:21;;;;;;;21.70;8.27;;;563.50;1024.00;;;;;;5018396;28;20042;-84
2022/03/23 09:31:47;;;;;;;17.90;7.88;;;589.00;972.80;;;;;;5006709;28;20037;-84
2022/03/23 09:34:13;;;;;;;24.55;10.60;;;589.00;972.80;;;;;;5030923;28;20593;-84
2022/03/23 09:39:23;;;;;;;27.35;8.88;;;589.60;972.80;;;;;;5029877;28;20037;-84
2022/03/23 09:41:50;;;;;;;16.88;7.32;;;614.80;947.20;;;;;;5017283;28;20034;-81
2022/03/23 09:44:17;;;;;;;17.80;7.22;;;615.20;896.00;;;;;;5024771;28;20025;-82
2022/03/23 09:46:43;;;;;;;18.73;7.97;;;615.00;896.00;;;;;;4997803;28;20037;-82
2022/03/23 09:49:09;;;;;;;29.65;8.70;;;615.20;896.00;;;;;;5010236;28;20034;-80
2022/03/23 09:51:38;;;;;;;16.88;8.07;;;615.00;896.00;;;;;;5023839;28;20042;-81
2022/03/23 09:54:04;;;;;;;23.35;8.35;;;640.20;870.40;;;;;;5002671;28;20040;-80
2022/03/23 09:56:31;;;;;;;16.02;9.05;;;640.20;896.00;;;;;;5020019;28;20089;-81
2022/03/23 09:58:56;;;;;;;20.05;10.10;;;640.00;870.40;;;;;;5031388;28;20029;-81
2022/03/23 10:01:28;;;;;;;16.95;7.25;;;640.30;870.40;;;;;;5007508;28;20033;-81
2022/03/23 10:04:12;;;;;;;14.65;6.55;;;665.60;870.40;;;;;;5024590;28;20046;-80
2022/03/23 10:06:50;;;;;;;13.40;7.43;;;640.90;844.80;;;;;;5003002;28;20490;-80
2022/03/23 10:09:18;;;;;;;23.17;7.82;;;665.70;844.80;;;;;;5005079;28;20508;-80
2022/03/23 10:12:03;;;;;;;17.35;7.63;;;665.70;844.80;;;;;;5025963;28;20028;-80
2022/03/23 10:14:52;;;;;;;25.73;6.78;;;665.90;844.80;;;;;;5005318;28;20601;-80
2022/03/23 10:17:49;;;;;;;14.98;7.43;;;665.90;844.80;;;;;;5019001;28;20034;-80
2022/03/23 10:20:15;;;;;;;15.43;8.20;;;691.30;793.60;;;;;;4994507;28;20123;-82
2022/03/23 10:22:48;;;;;;;24.45;12.68;;;666.50;819.20;;;;;;5024856;28;20482;-80
2022/03/23 10:25:16;;;;;;;16.27;9.85;;;691.50;793.60;;;;;;5018201;28;20037;-81
2022/03/23 10:27:43;;;;;;;22.15;9.20;;;691.70;793.60;;;;;;5008121;28;20034;-81
2022/03/23 10:30:09;;;;;;;18.33;7.78;;;691.90;793.60;;;;;;4994620;28;20034;-80
2022/03/23 10:32:38;;;;;;;15.85;6.88;;;691.60;793.60;;;;;;5015483;28;20029;-80
2022/03/23 10:35:13;;;;;;;12.30;6.30;;;691.70;793.60;;;;;;5027619;28;20504;-80
2022/03/23 10:37:39;;;;;;;11.75;5.50;;;691.90;768.00;;;;;;5003400;28;20029;-79
2022/03/23 10:40:12;;;;;;;13.23;6.18;;;691.90;768.00;;;;;;5009142;28;20041;-78
2022/03/23 10:42:41;;;;;;;18.38;9.32;;;691.90;768.00;;;;;;5011914;28;20021;-80
2022/03/23 10:45:08;;;;;;;13.70;6.75;;;716.80;768.00;;;;;;5026274;28;20021;-81
2022/03/23 10:47:35;;;;;;;15.10;7.70;;;717.10;793.60;;;;;;5000134;28;20026;-81
2022/03/23 10:50:26;;;;;;;16.58;6.32;;;717.50;793.60;;;;;;5030023;28;20033;-81
2022/03/23 10:53:02;;;;;;;16.08;7.22;;;717.70;793.60;;;;;;5002648;28;20092;-81
2022/03/23 10:55:30;;;;;;;20.05;7.30;;;742.50;793.60;;;;;;4999207;28;20042;-80
2022/03/23 10:57:59;;;;;;;12.32;5.35;;;742.60;793.60;;;;;;5031339;28;20751;-83
2022/03/23 11:00:29;;;;;;;22.95;14.02;;;717.20;793.60;;;;;;5014873;28;20040;-82
2022/03/23 11:02:55;;;;;;;14.40;6.82;;;717.40;793.60;;;;;;5017845;28;20047;-83
2022/03/23 11:05:46;;;;;;;12.30;7.20;;;742.60;793.60;;;;;;5028280;28;20029;-82
2022/03/23 11:08:15;;;;;;;11.10;5.55;;;743.00;793.60;;;;;;5014260;28;20026;-81
2022/03/23 11:16:28;;;;;;;15.55;7.18;;;743.10;768.00;;;;;;5018931;28;20068;-80
2022/03/23 11:19:19;;;;;;;17.23;6.53;;;743.10;768.00;;;;;;5001996;28;20088;-81
2022/03/23 11:22:16;;;;;;;11.85;4.80;;;768.10;742.40;;;;;;4942831;28;20411;-81
2022/03/23 11:24:47;;;;;;;13.20;7.47;;;768.20;742.40;;;;;;4954210;28;20031;-82
2022/03/23 11:27:18;;;;;;;12.15;7.13;;;743.20;742.40;;;;;;4954917;28;20376;-81
2022/03/23 11:29:46;;;;;;;16.40;7.38;;;743.20;716.80;;;;;;4970447;28;20043;-81
2022/03/23 11:32:29;;;;;;;9.00;5.05;;;743.10;742.40;;;;;;4961881;28;20034;-80
2022/03/23 11:34:56;;;;;;;13.90;5.68;;;768.40;691.20;;;;;;4964889;28;20035;-80
2022/03/23 11:37:23;;;;;;;15.07;6.28;;;743.20;742.40;;;;;;4961837;28;20027;-81
2022/03/23 11:39:51;;;;;;;9.70;5.25;;;743.00;716.80;;;;;;4962085;28;20039;-80
2022/03/23 11:42:22;;;;;;;11.65;6.20;;;768.30;691.20;;;;;;4959549;28;20033;-78
2022/03/23 11:44:49;;;;;;;13.23;7.43;;;743.20;716.80;;;;;;4963673;28;20026;-77
2022/03/23 11:47:42;;;;;;;12.10;5.95;;;743.10;716.80;;;;;;4959122;28;20031;-79
2022/03/23 11:50:08;;;;;;;12.65;5.47;;;768.10;691.20;;;;;;4964494;28;20122;-80
2022/03/23 11:52:46;;;;;;;9.30;5.10;;;768.50;691.20;;;;;;4943672;28;20125;-80
2022/03/23 11:55:46;;;;;;;10.90;5.18;;;743.30;716.80;;;;;;4951500;28;20038;-82
2022/03/23 11:58:18;;;;;;;8.30;5.85;;;768.60;691.20;;;;;;4907974;29;20068;-80
2022/03/23 12:00:53;;;;;;;12.85;5.50;;;768.30;691.20;;;;;;4926049;29;20028;-79
2022/03/23 12:03:47;;;;;;;11.30;6.70;;;768.10;716.80;;;;;;4913108;29;20392;-80
2022/03/23 12:06:15;;;;;;;11.00;6.15;;;743.10;716.80;;;;;;4928847;29;20109;-80
2022/03/23 12:08:47;;;;;;;25.70;9.65;;;768.40;691.20;;;;;;4917191;29;20036;-81
2022/03/23 12:11:32;;;;;;;16.98;6.70;;;768.90;665.60;;;;;;4915508;29;20028;-81
2022/03/23 12:13:59;;;;;;;16.27;7.00;;;743.20;716.80;;;;;;4930404;29;20071;-81
2022/03/23 12:17:03;;;;;;;17.50;6.25;;;743.20;716.80;;;;;;4915887;29;20028;-82
2022/03/23 12:19:32;;;;;;;8.50;4.93;;;768.20;691.20;;;;;;4861465;29;20120;-81
2022/03/23 12:22:06;;;;;;;10.57;5.63;;;768.60;691.20;;;;;;4862130;29;20033;-81
2022/03/23 12:24:41;;;;;;;12.25;6.13;;;768.20;691.20;;;;;;4862012;29;20746;-83
2022/03/23 12:27:16;;;;;;;10.05;4.63;;;742.50;716.80;;;;;;4877458;29;20044;-82
2022/03/23 12:29:46;;;;;;;8.95;5.75;;;717.40;691.20;;;;;;4868927;29;20029;-82
2022/03/23 12:32:13;;;;;;;11.57;5.60;;;742.40;716.80;;;;;;4861226;29;20482;-81
2022/03/23 12:34:42;;;;;;;11.90;4.97;;;742.40;716.80;;;;;;4901452;29;20043;-80
2022/03/23 12:37:11;;;;;;;10.27;5.03;;;743.00;691.20;;;;;;4952145;28;20558;-76
2022/03/23 12:39:38;;;;;;;7.25;5.10;;;743.20;691.20;;;;;;4952009;28;20525;-80
2022/03/23 12:42:31;;;;;;;9.57;4.70;;;768.00;665.60;;;;;;4936497;29;20149;-79
2022/03/23 12:44:57;;;;;;;14.95;6.15;;;768.60;640.00;;;;;;4936542;29;20023;-79
2022/03/23 12:47:27;;;;;;;11.40;4.80;;;768.50;665.60;;;;;;4952912;29;20043;-78
2022/03/23 12:58:25;;;;;;;8.05;5.05;;;793.60;665.60;;;;;;5026093;28;20060;-79